sensor_id;sensor_type;location;lat;lon;timestamp;pressure;altitude;pressure_sealevel;temperature;humidity
21109;BME280;10712;52.944;9.098;2023-04-09T00:01:11;102658.56;;;15.56;55.14
21109;BME280;10712;52.944;9.098;2023-04-09T00:03:37;102656.00;;;15.55;55.20
21109;BME280;10712;52.944;9.098;2023-04-09T00:06:04;102651.50;;;15.55;55.29
21109;BME280;10712;52.944;9.098;2023-04-09T00:08:30;102659.66;;;15.52;55.27
21109;BME280;10712;52.944;9.098;2023-04-09T00:10:57;102654.94;;;15.57;55.13
21109;BME280;10712;52.944;9.098;2023-04-09T00:13:24;102653.13;;;15.58;55.08
21109;BME280;10712;52.944;9.098;2023-04-09T00:15:49;102653.22;;;15.56;55.18
21109;BME280;10712;52.944;9.098;2023-04-09T00:18:15;102663.94;;;15.56;55.02
21109;BME280;10712;52.944;9.098;2023-04-09T00:20:43;102656.88;;;15.55;54.96
21109;BME280;10712;52.944;9.098;2023-04-09T00:23:08;102655.19;;;15.53;55.04
21109;BME280;10712;52.944;9.098;2023-04-09T00:25:35;102649.84;;;15.51;55.22
21109;BME280;10712;52.944;9.098;2023-04-09T00:28:02;102651.72;;;15.49;55.36
21109;BME280;10712;52.944;9.098;2023-04-09T00:30:30;102646.34;;;15.49;55.21
21109;BME280;10712;52.944;9.098;2023-04-09T00:32:57;102653.38;;;15.53;55.21
21109;BME280;10712;52.944;9.098;2023-04-09T00:35:23;102647.13;;;15.53;55.14
21109;BME280;10712;52.944;9.098;2023-04-09T00:37:49;102642.19;;;15.62;54.86
21109;BME280;10712;52.944;9.098;2023-04-09T00:40:15;102644.06;;;15.60;54.97
21109;BME280;10712;52.944;9.098;2023-04-09T00:42:41;102642.03;;;15.65;54.79
21109;BME280;10712;52.944;9.098;2023-04-09T00:45:07;102647.38;;;15.65;54.62
21109;BME280;10712;52.944;9.098;2023-04-09T00:47:34;102644.72;;;15.65;54.69
21109;BME280;10712;52.944;9.098;2023-04-09T00:50:01;102640.13;;;15.67;54.63
21109;BME280;10712;52.944;9.098;2023-04-09T00:52:28;102640.13;;;15.67;54.33
21109;BME280;10712;52.944;9.098;2023-04-09T00:54:59;102640.13;;;15.67;54.24
21109;BME280;10712;52.944;9.098;2023-04-09T00:57:25;102636.81;;;15.62;54.29
21109;BME280;10712;52.944;9.098;2023-04-09T00:59:53;102640.44;;;15.61;54.36
21109;BME280;10712;52.944;9.098;2023-04-09T01:02:19;102642.19;;;15.62;54.29
21109;BME280;10712;52.944;9.098;2023-04-09T01:04:46;102634.03;;;15.64;54.26
21109;BME280;10712;52.944;9.098;2023-04-09T01:10:40;102636.81;;;15.62;54.05
21109;BME280;10712;52.944;9.098;2023-04-09T01:13:12;102635.44;;;15.90;53.34
21109;BME280;10712;52.944;9.098;2023-04-09T01:15:53;102632.44;;;15.96;53.33
21109;BME280;10712;52.944;9.098;2023-04-09T01:18:44;102632.34;;;15.97;52.82
21109;BME280;10712;52.944;9.098;2023-04-09T01:21:19;102638.50;;;15.99;52.90
21109;BME280;10712;52.944;9.098;2023-04-09T01:24:08;102633.19;;;15.98;52.88
21109;BME280;10712;52.944;9.098;2023-04-09T01:27:04;102632.03;;;16.03;52.77
21109;BME280;10712;52.944;9.098;2023-04-09T01:29:52;102634.63;;;16.05;52.65
21109;BME280;10712;52.944;9.098;2023-04-09T01:32:19;102627.53;;;16.04;52.39
21109;BME280;10712;52.944;9.098;2023-04-09T01:34:47;102632.19;;;16.00;52.35
21109;BME280;10712;52.944;9.098;2023-04-09T01:37:15;102622.44;;;15.98;52.43
21109;BME280;10712;52.944;9.098;2023-04-09T01:39:43;102622.63;;;15.95;52.21
21109;BME280;10712;52.944;9.098;2023-04-09T01:42:11;102631.63;;;15.94;52.24
21109;BME280;10712;52.944;9.098;2023-04-09T01:44:41;102626.19;;;15.95;52.24
21109;BME280;10712;52.944;9.098;2023-04-09T01:47:09;102628.69;;;15.98;52.19
21109;BME280;10712;52.944;9.098;2023-04-09T01:49:38;102630.31;;;16.02;52.05
21109;BME280;10712;52.944;9.098;2023-04-09T01:52:05;102629.34;;;16.03;52.12
21109;BME280;10712;52.944;9.098;2023-04-09T01:54:31;102623.88;;;16.05;51.88
21109;BME280;10712;52.944;9.098;2023-04-09T01:56:57;102622.16;;;16.04;51.91
21109;BME280;10712;52.944;9.098;2023-04-09T01:59:23;102626.50;;;16.06;51.65
21109;BME280;10712;52.944;9.098;2023-04-09T02:04:33;102616.13;;;15.99;51.37
21109;BME280;10712;52.944;9.098;2023-04-09T02:07:32;102624.38;;;15.96;51.29
21109;BME280;10712;52.944;9.098;2023-04-09T02:10:05;102617.38;;;15.92;51.16
21109;BME280;10712;52.944;9.098;2023-04-09T02:12:36;102621.19;;;15.88;51.11
21109;BME280;10712;52.944;9.098;2023-04-09T02:15:04;102617.56;;;15.89;50.98
21109;BME280;10712;52.944;9.098;2023-04-09T02:17:32;102617.69;;;15.86;50.94
21109;BME280;10712;52.944;9.098;2023-04-09T02:19:58;102620.38;;;15.86;51.00
21109;BME280;10712;52.944;9.098;2023-04-09T02:22:23;102617.69;;;15.86;50.84
21109;BME280;10712;52.944;9.098;2023-04-09T02:24:49;102620.56;;;15.83;50.85
21109;BME280;10712;52.944;9.098;2023-04-09T02:27:15;102622.44;;;15.81;50.83
21109;BME280;10712;52.944;9.098;2023-04-09T02:29:42;102621.56;;;15.80;50.65
21109;BME280;10712;52.944;9.098;2023-04-09T02:32:08;102618.88;;;15.80;50.56
21109;BME280;10712;52.944;9.098;2023-04-09T02:34:34;102613.81;;;15.74;50.63
21109;BME280;10712;52.944;9.098;2023-04-09T02:37:00;102622.13;;;15.69;50.49
21109;BME280;10712;52.944;9.098;2023-04-09T02:39:25;102618.78;;;15.64;50.59
21109;BME280;10712;52.944;9.098;2023-04-09T02:41:52;102614.50;;;15.60;50.63
21109;BME280;10712;52.944;9.098;2023-04-09T02:44:17;102620.81;;;15.59;50.55
21109;BME280;10712;52.944;9.098;2023-04-09T02:46:46;102612.78;;;15.59;50.69
21109;BME280;10712;52.944;9.098;2023-04-09T02:49:12;102612.69;;;15.61;50.74
21109;BME280;10712;52.944;9.098;2023-04-09T02:51:38;102612.63;;;15.62;50.77
21109;BME280;10712;52.944;9.098;2023-04-09T02:54:03;102605.41;;;15.63;50.75
21109;BME280;10712;52.944;9.098;2023-04-09T02:56:29;102610.88;;;15.61;50.81
21109;BME280;10712;52.944;9.098;2023-04-09T02:58:55;102617.19;;;15.60;50.89
21109;BME280;10712;52.944;9.098;2023-04-09T03:01:21;102611.03;;;15.58;50.98
21109;BME280;10712;52.944;9.098;2023-04-09T03:03:48;102611.09;;;15.57;51.25
21109;BME280;10712;52.944;9.098;2023-04-09T03:06:14;102615.47;;;15.59;50.97
21109;BME280;10712;52.944;9.098;2023-04-09T03:08:40;102612.78;;;15.59;51.11
21109;BME280;10712;52.944;9.098;2023-04-09T03:11:06;102605.69;;;15.75;50.94
21109;BME280;10712;52.944;9.098;2023-04-09T03:13:31;102611.22;;;15.72;51.10
21109;BME280;10712;52.944;9.098;2023-04-09T03:15:57;102599.66;;;15.70;51.15
21109;BME280;10712;52.944;9.098;2023-04-09T03:18:23;102604.09;;;15.71;51.14
21109;BME280;10712;52.944;9.098;2023-04-09T03:20:49;102602.19;;;15.73;51.29
21109;BME280;10712;52.944;9.098;2023-04-09T03:23:15;102600.31;;;15.75;51.30
21109;BME280;10712;52.944;9.098;2023-04-09T03:25:45;102592.09;;;15.79;51.29
21109;BME280;10712;52.944;9.098;2023-04-09T03:28:13;102588.44;;;15.80;51.27
21109;BME280;10712;52.944;9.098;2023-04-09T03:30:43;102583.88;;;15.82;51.18
21109;BME280;10712;52.944;9.098;2023-04-09T03:33:09;102580.25;;;15.83;51.23
21109;BME280;10712;52.944;9.098;2023-04-09T03:35:48;102573.13;;;15.82;51.31
21109;BME280;10712;52.944;9.098;2023-04-09T03:38:15;102576.75;;;15.81;51.24
21109;BME280;10712;52.944;9.098;2023-04-09T03:40:40;102575.16;;;15.76;51.34
21109;BME280;10712;52.944;9.098;2023-04-09T03:43:07;102587.19;;;15.69;51.20
21109;BME280;10712;52.944;9.098;2023-04-09T03:45:36;102586.41;;;15.67;51.34
21109;BME280;10712;52.944;9.098;2023-04-09T03:48:14;102582.91;;;15.65;51.32
21109;BME280;10712;52.944;9.098;2023-04-09T03:50:41;102582.91;;;15.65;51.31
21109;BME280;10712;52.944;9.098;2023-04-09T03:53:10;102584.03;;;15.61;51.28
21109;BME280;10712;52.944;9.098;2023-04-09T03:55:37;102585.09;;;15.57;51.24
21109;BME280;10712;52.944;9.098;2023-04-09T03:58:07;102579.28;;;15.48;51.20
21109;BME280;10712;52.944;9.098;2023-04-09T04:00:35;102580.63;;;15.39;51.17
21109;BME280;10712;52.944;9.098;2023-04-09T04:03:19;102584.69;;;15.29;51.01
21109;BME280;10712;52.944;9.098;2023-04-09T04:06:23;102589.56;;;15.21;51.13
21109;BME280;10712;52.944;9.098;2023-04-09T04:09:12;102590.94;;;15.11;51.00
21109;BME280;10712;52.944;9.098;2023-04-09T04:11:50;102589.50;;;15.04;50.98
21109;BME280;10712;52.944;9.098;2023-04-09T04:14:18;102593.41;;;14.96;50.89
21109;BME280;10712;52.944;9.098;2023-04-09T04:16:49;102590.22;;;14.88;50.88
21109;BME280;10712;52.944;9.098;2023-04-09T04:19:19;102589.63;;;14.82;50.98
21109;BME280;10712;52.944;9.098;2023-04-09T04:21:48;102596.97;;;14.78;51.00
21109;BME280;10712;52.944;9.098;2023-04-09T04:24:15;102594.41;;;14.75;50.99
21109;BME280;10712;52.944;9.098;2023-04-09T04:26:41;102591.09;;;14.70;50.95
21109;BME280;10712;52.944;9.098;2023-04-09T04:29:08;102595.06;;;14.62;50.76
21109;BME280;10712;52.944;9.098;2023-04-09T04:31:47;102597.03;;;14.58;50.89
21109;BME280;10712;52.944;9.098;2023-04-09T04:34:15;102591.78;;;14.55;51.02
21109;BME280;10712;52.944;9.098;2023-04-09T04:36:45;102600.75;;;14.54;50.99
21109;BME280;10712;52.944;9.098;2023-04-09T04:39:11;102601.63;;;14.54;51.02
21109;BME280;10712;52.944;9.098;2023-04-09T04:41:49;102595.56;;;14.51;51.15
21109;BME280;10712;52.944;9.098;2023-04-09T04:44:20;102603.78;;;14.46;51.25
21109;BME280;10712;52.944;9.098;2023-04-09T04:46:49;102607.50;;;14.44;51.22
21109;BME280;10712;52.944;9.098;2023-04-09T04:49:15;102599.63;;;14.39;51.21
21109;BME280;10712;52.944;9.098;2023-04-09T04:51:45;102606.94;;;14.36;51.34
21109;BME280;10712;52.944;9.098;2023-04-09T04:54:13;102607.94;;;14.33;51.46
21109;BME280;10712;52.944;9.098;2023-04-09T04:56:44;102602.63;;;14.32;51.48
21109;BME280;10712;52.944;9.098;2023-04-09T04:59:29;102608.78;;;14.34;51.35
21109;BME280;10712;52.944;9.098;2023-04-09T05:01:59;102602.56;;;14.33;51.32
21109;BME280;10712;52.944;9.098;2023-04-09T05:04:27;102609.06;;;14.28;51.51
21109;BME280;10712;52.944;9.098;2023-04-09T05:06:55;102613.50;;;14.29;51.42
21109;BME280;10712;52.944;9.098;2023-04-09T05:09:22;102604.47;;;14.31;51.70
21109;BME280;10712;52.944;9.098;2023-04-09T05:12:05;102609.72;;;14.33;51.78
21109;BME280;10712;52.944;9.098;2023-04-09T05:14:30;102606.19;;;14.32;51.64
21109;BME280;10712;52.944;9.098;2023-04-09T05:16:56;102601.84;;;14.30;51.81
21109;BME280;10712;52.944;9.098;2023-04-09T05:19:27;102595.72;;;14.26;51.75
21109;BME280;10712;52.944;9.098;2023-04-09T05:21:58;102602.13;;;14.24;51.75
21109;BME280;10712;52.944;9.098;2023-04-09T05:24:24;102606.66;;;14.22;51.94
21109;BME280;10712;52.944;9.098;2023-04-09T05:26:50;102608.69;;;14.16;51.93
21109;BME280;10712;52.944;9.098;2023-04-09T05:29:15;102608.81;;;14.13;52.01
21109;BME280;10712;52.944;9.098;2023-04-09T05:31:42;102609.06;;;14.07;51.90
21109;BME280;10712;52.944;9.098;2023-04-09T05:34:14;102611.88;;;14.04;52.04
21109;BME280;10712;52.944;9.098;2023-04-09T05:36:44;102614.50;;;14.06;52.15
21109;BME280;10712;52.944;9.098;2023-04-09T05:39:10;102614.44;;;14.07;52.10
21109;BME280;10712;52.944;9.098;2023-04-09T05:41:36;102616.19;;;14.08;52.18
21109;BME280;10712;52.944;9.098;2023-04-09T05:44:21;102609.69;;;14.14;52.12
21109;BME280;10712;52.944;9.098;2023-04-09T05:46:48;102609.63;;;14.15;52.15
21109;BME280;10712;52.944;9.098;2023-04-09T05:49:18;102612.16;;;14.18;51.94
21109;BME280;10712;52.944;9.098;2023-04-09T05:51:49;102611.09;;;14.23;52.13
21109;BME280;10712;52.944;9.098;2023-04-09T05:54:20;102603.81;;;14.25;52.08
21109;BME280;10712;52.944;9.098;2023-04-09T05:56:46;102602.78;;;14.29;52.07
21109;BME280;10712;52.944;9.098;2023-04-09T05:59:13;102613.22;;;14.35;52.26
21109;BME280;10712;52.944;9.098;2023-04-09T06:01:39;102606.56;;;14.45;52.24
21109;BME280;10712;52.944;9.098;2023-04-09T06:04:05;102617.66;;;14.56;52.21
21109;BME280;10712;52.944;9.098;2023-04-09T06:06:31;102611.75;;;14.68;52.35
21109;BME280;10712;52.944;9.098;2023-04-09T06:08:58;102612.47;;;14.72;52.56
21109;BME280;10712;52.944;9.098;2023-04-09T06:11:24;102615.75;;;14.78;52.75
21109;BME280;10712;52.944;9.098;2023-04-09T06:13:51;102622.47;;;14.87;52.94
21109;BME280;10712;52.944;9.098;2023-04-09T06:16:17;102618.66;;;14.92;52.96
21109;BME280;10712;52.944;9.098;2023-04-09T06:18:42;102624.41;;;15.04;53.07
21109;BME280;10712;52.944;9.098;2023-04-09T06:21:11;102622.16;;;15.13;53.29
21109;BME280;10712;52.944;9.098;2023-04-09T06:23:38;102622.22;;;15.12;53.51
21109;BME280;10712;52.944;9.098;2023-04-09T06:26:04;102624.03;;;15.11;53.67
21109;BME280;10712;52.944;9.098;2023-04-09T06:28:31;102624.63;;;15.18;53.64
21109;BME280;10712;52.944;9.098;2023-04-09T06:30:57;102630.25;;;15.30;53.47
21109;BME280;10712;52.944;9.098;2023-04-09T06:33:23;102631.13;;;15.31;53.50
21109;BME280;10712;52.944;9.098;2023-04-09T06:35:49;102635.34;;;15.36;53.42
21109;BME280;10712;52.944;9.098;2023-04-09T06:38:16;102637.09;;;15.37;53.54
21109;BME280;10712;52.944;9.098;2023-04-09T06:40:42;102643.34;;;15.38;53.52
21109;BME280;10712;52.944;9.098;2023-04-09T06:43:08;102640.97;;;15.49;53.34
21109;BME280;10712;52.944;9.098;2023-04-09T06:45:43;102649.50;;;15.59;53.10
21109;BME280;10712;52.944;9.098;2023-04-09T06:48:09;102646.13;;;15.55;52.96
21109;BME280;10712;52.944;9.098;2023-04-09T06:50:35;102645.06;;;15.58;53.12
21109;BME280;10712;52.944;9.098;2023-04-09T06:53:01;102648.19;;;15.67;52.64
21109;BME280;10712;52.944;9.098;2023-04-09T06:55:27;102645.50;;;15.67;52.65
21109;BME280;10712;52.944;9.098;2023-04-09T06:57:53;102650.56;;;15.73;52.61
21109;BME280;10712;52.944;9.098;2023-04-09T07:00:19;102644.19;;;15.76;52.01
21109;BME280;10712;52.944;9.098;2023-04-09T07:02:45;102653.75;;;15.99;51.42
21109;BME280;10712;52.944;9.098;2023-04-09T07:05:11;102648.38;;;15.82;51.76
21109;BME280;10712;52.944;9.098;2023-04-09T07:07:37;102644.75;;;15.83;51.85
21109;BME280;10712;52.944;9.098;2023-04-09T07:10:03;102649.00;;;15.87;51.65
21109;BME280;10712;52.944;9.098;2023-04-09T07:12:32;102638.44;;;16.01;51.43
21109;BME280;10712;52.944;9.098;2023-04-09T07:15:05;102645.50;;;16.03;51.06
21109;BME280;10712;52.944;9.098;2023-04-09T07:17:33;102647.44;;;16.00;51.31
21109;BME280;10712;52.944;9.098;2023-04-09T07:19:59;102649.75;;;16.07;51.21
21109;BME280;10712;52.944;9.098;2023-04-09T07:22:27;102646.66;;;16.15;50.96
21109;BME280;10712;52.944;9.098;2023-04-09T07:24:53;102638.13;;;16.24;50.60
21109;BME280;10712;52.944;9.098;2023-04-09T07:27:26;102632.59;;;16.27;50.00
21109;BME280;10712;52.944;9.098;2023-04-09T07:29:55;102631.63;;;16.28;50.17
21109;BME280;10712;52.944;9.098;2023-04-09T07:32:22;102633.84;;;16.37;49.66
21109;BME280;10712;52.944;9.098;2023-04-09T07:34:50;102638.28;;;16.38;49.67
21109;BME280;10712;52.944;9.098;2023-04-09T07:37:16;102636.91;;;16.47;49.47
21109;BME280;10712;52.944;9.098;2023-04-09T07:39:41;102636.59;;;16.53;49.30
21109;BME280;10712;52.944;9.098;2023-04-09T07:42:07;102634.69;;;16.55;49.23
21109;BME280;10712;52.944;9.098;2023-04-09T07:44:34;102634.69;;;16.55;49.35
21109;BME280;10712;52.944;9.098;2023-04-09T07:47:05;102641.38;;;16.65;48.96
21109;BME280;10712;52.944;9.098;2023-04-09T07:49:32;102641.91;;;16.72;48.84
21109;BME280;10712;52.944;9.098;2023-04-09T07:52:00;102648.94;;;16.74;48.75
21109;BME280;10712;52.944;9.098;2023-04-09T07:54:26;102643.13;;;16.82;48.71
21109;BME280;10712;52.944;9.098;2023-04-09T07:56:53;102648.38;;;16.85;48.45
21109;BME280;10712;52.944;9.098;2023-04-09T07:59:19;102642.50;;;16.94;48.04
21109;BME280;10712;52.944;9.098;2023-04-09T08:01:44;102645.44;;;17.05;47.90
21109;BME280;10712;52.944;9.098;2023-04-09T08:04:10;102639.13;;;17.06;47.91
21109;BME280;10712;52.944;9.098;2023-04-09T08:06:38;102638.06;;;17.09;47.90
21109;BME280;10712;52.944;9.098;2023-04-09T08:09:04;102646.59;;;17.17;47.96
21109;BME280;10712;52.944;9.098;2023-04-09T08:11:30;102639.97;;;17.22;47.70
21109;BME280;10712;52.944;9.098;2023-04-09T08:13:56;102645.31;;;17.40;47.25
21109;BME280;10712;52.944;9.098;2023-04-09T08:16:23;102649.91;;;17.38;47.33
21109;BME280;10712;52.944;9.098;2023-04-09T08:18:49;102652.09;;;17.47;47.41
21109;BME280;10712;52.944;9.098;2023-04-09T08:21:16;102645.09;;;17.58;47.33
21109;BME280;10712;52.944;9.098;2023-04-09T08:23:42;102646.28;;;17.70;47.30
21109;BME280;10712;52.944;9.098;2023-04-09T08:26:08;102646.69;;;17.78;47.07
21109;BME280;10712;52.944;9.098;2023-04-09T08:28:33;102637.47;;;17.82;46.23
21109;BME280;10712;52.944;9.098;2023-04-09T08:30:59;102646.16;;;17.87;46.22
21109;BME280;10712;52.944;9.098;2023-04-09T08:33:25;102645.78;;;17.93;46.55
21109;BME280;10712;52.944;9.098;2023-04-09T08:35:51;102642.19;;;18.08;45.65
21109;BME280;10712;52.944;9.098;2023-04-09T08:38:18;102650.66;;;18.02;45.45
21109;BME280;10712;52.944;9.098;2023-04-09T08:40:44;102643.84;;;18.11;45.64
21109;BME280;10712;52.944;9.098;2023-04-09T08:43:14;102638.34;;;18.13;45.54
21109;BME280;10712;52.944;9.098;2023-04-09T08:45:43;102636.25;;;18.18;45.53
21109;BME280;10712;52.944;9.098;2023-04-09T08:48:12;102641.47;;;18.35;44.81
21109;BME280;10712;52.944;9.098;2023-04-09T08:50:38;102639.56;;;18.37;45.03
21109;BME280;10712;52.944;9.098;2023-04-09T08:53:07;102638.41;;;18.41;44.66
21109;BME280;10712;52.944;9.098;2023-04-09T08:55:33;102641.31;;;18.38;44.79
21109;BME280;10712;52.944;9.098;2023-04-09T08:58:03;102638.44;;;18.55;45.12
21109;BME280;10712;52.944;9.098;2023-04-09T09:00:28;102635.00;;;18.67;44.30
21109;BME280;10712;52.944;9.098;2023-04-09T09:03:11;102638.88;;;18.77;43.56
21109;BME280;10712;52.944;9.098;2023-04-09T09:05:42;102639.84;;;18.76;43.29
21109;BME280;10712;52.944;9.098;2023-04-09T09:08:34;102636.84;;;18.67;43.70
21109;BME280;10712;52.944;9.098;2023-04-09T09:11:00;102636.00;;;18.80;43.33
21109;BME280;10712;52.944;9.098;2023-04-09T09:13:27;102628.47;;;18.85;43.36
21109;BME280;10712;52.944;9.098;2023-04-09T09:16:11;102631.63;;;18.92;43.86
21109;BME280;10712;52.944;9.098;2023-04-09T09:18:40;102628.06;;;19.06;43.44
21109;BME280;10712;52.944;9.098;2023-04-09T09:21:16;102627.97;;;19.07;43.51
21109;BME280;10712;52.944;9.098;2023-04-09T09:23:43;102621.94;;;19.16;42.86
21109;BME280;10712;52.944;9.098;2023-04-09T09:26:13;102619.53;;;19.26;42.05
21109;BME280;10712;52.944;9.098;2023-04-09T09:28:41;102623.44;;;19.08;42.56
21109;BME280;10712;52.944;9.098;2023-04-09T09:31:11;102624.00;;;19.13;43.09
21109;BME280;10712;52.944;9.098;2023-04-09T09:33:38;102630.34;;;19.26;43.20
21109;BME280;10712;52.944;9.098;2023-04-09T09:36:04;102629.34;;;19.41;42.86
21109;BME280;10712;52.944;9.098;2023-04-09T09:38:31;102623.34;;;19.50;42.07
21109;BME280;10712;52.944;9.098;2023-04-09T09:40:57;102634.94;;;19.52;41.96
21109;BME280;10712;52.944;9.098;2023-04-09T09:43:39;102629.53;;;19.52;42.64
21109;BME280;10712;52.944;9.098;2023-04-09T09:46:07;102622.75;;;19.59;41.43
21109;BME280;10712;52.944;9.098;2023-04-09T09:48:34;102624.34;;;19.49;42.00
21109;BME280;10712;52.944;9.098;2023-04-09T09:51:02;102624.69;;;19.57;42.57
21109;BME280;10712;52.944;9.098;2023-04-09T09:53:34;102615.00;;;19.67;42.37
21109;BME280;10712;52.944;9.098;2023-04-09T09:56:04;102613.63;;;19.75;42.13
21109;BME280;10712;52.944;9.098;2023-04-09T09:58:40;102611.81;;;19.88;42.70
21109;BME280;10712;52.944;9.098;2023-04-09T10:01:11;102608.16;;;20.01;41.86
21109;BME280;10712;52.944;9.098;2023-04-09T10:03:39;102606.25;;;20.16;41.50
21109;BME280;10712;52.944;9.098;2023-04-09T10:06:08;102604.41;;;20.04;41.30
21109;BME280;10712;52.944;9.098;2023-04-09T10:08:36;102614.88;;;19.96;41.69
21109;BME280;10712;52.944;9.098;2023-04-09T10:11:06;102607.66;;;20.09;42.11
21109;BME280;10712;52.944;9.098;2023-04-09T10:13:45;102601.81;;;20.15;41.53
21109;BME280;10712;52.944;9.098;2023-04-09T10:16:14;102597.28;;;20.28;40.91
21109;BME280;10712;52.944;9.098;2023-04-09T10:18:41;102587.41;;;20.27;40.88
21109;BME280;10712;52.944;9.098;2023-04-09T10:23:49;102585.47;;;20.29;40.61
21109;BME280;10712;52.944;9.098;2023-04-09T10:26:18;102582.91;;;20.40;40.66
21109;BME280;10712;52.944;9.098;2023-04-09T10:28:44;102588.09;;;20.56;39.86
21109;BME280;10712;52.944;9.098;2023-04-09T10:31:10;102585.63;;;20.66;39.06
21109;BME280;10712;52.944;9.098;2023-04-09T10:33:37;102581.38;;;20.62;39.44
21109;BME280;10712;52.944;9.098;2023-04-09T10:36:08;102581.81;;;20.68;39.66
21109;BME280;10712;52.944;9.098;2023-04-09T10:38:40;102580.09;;;20.67;39.81
21109;BME280;10712;52.944;9.098;2023-04-09T10:41:27;102580.50;;;20.61;39.51
21109;BME280;10712;52.944;9.098;2023-04-09T10:43:53;102572.94;;;20.79;39.09
21109;BME280;10712;52.944;9.098;2023-04-09T10:46:33;102573.91;;;20.78;39.13
21109;BME280;10712;52.944;9.098;2023-04-09T10:49:26;102570.22;;;20.79;39.30
21109;BME280;10712;52.944;9.098;2023-04-09T10:52:08;102567.25;;;20.82;39.51
21109;BME280;10712;52.944;9.098;2023-04-09T10:54:41;102567.03;;;20.98;39.09
21109;BME280;10712;52.944;9.098;2023-04-09T10:57:19;102573.09;;;21.01;38.44
21109;BME280;10712;52.944;9.098;2023-04-09T10:59:50;102568.66;;;21.00;39.06
21109;BME280;10712;52.944;9.098;2023-04-09T11:05:28;102565.06;;;21.00;39.03
21109;BME280;10712;52.944;9.098;2023-04-09T11:08:12;102555.56;;;20.94;39.37
21109;BME280;10712;52.944;9.098;2023-04-09T11:10:41;102556.59;;;21.04;39.47
21109;BME280;10712;52.944;9.098;2023-04-09T11:13:11;102550.72;;;21.10;39.29
21109;BME280;10712;52.944;9.098;2023-04-09T11:15:38;102552.84;;;21.31;38.76
21109;BME280;10712;52.944;9.098;2023-04-09T11:18:04;102549.97;;;21.45;37.77
21109;BME280;10712;52.944;9.098;2023-04-09T11:20:34;102545.00;;;21.39;37.85
21109;BME280;10712;52.944;9.098;2023-04-09T11:23:01;102543.25;;;21.38;38.12
21109;BME280;10712;52.944;9.098;2023-04-09T11:25:29;102532.19;;;21.41;38.67
21109;BME280;10712;52.944;9.098;2023-04-09T11:27:56;102541.34;;;21.51;39.03
21109;BME280;10712;52.944;9.098;2023-04-09T11:30:21;102533.50;;;21.59;38.56
21109;BME280;10712;52.944;9.098;2023-04-09T11:32:48;102534.44;;;21.71;38.56
21109;BME280;10712;52.944;9.098;2023-04-09T11:35:17;102530.88;;;21.81;38.73
21109;BME280;10712;52.944;9.098;2023-04-09T11:37:45;102532.94;;;22.02;37.96
21109;BME280;10712;52.944;9.098;2023-04-09T11:42:46;102525.22;;;21.84;37.84
21109;BME280;10712;52.944;9.098;2023-04-09T11:45:14;102528.66;;;21.86;37.96
21109;BME280;10712;52.944;9.098;2023-04-09T11:47:43;102525.47;;;21.92;38.40
21109;BME280;10712;52.944;9.098;2023-04-09T11:50:11;102526.03;;;21.97;37.71
21109;BME280;10712;52.944;9.098;2023-04-09T11:52:37;102531.19;;;22.00;38.30
21109;BME280;10712;52.944;9.098;2023-04-09T11:55:05;102530.50;;;22.10;37.29
21109;BME280;10712;52.944;9.098;2023-04-09T11:57:43;102524.50;;;21.93;37.89
21109;BME280;10712;52.944;9.098;2023-04-09T12:00:14;102525.06;;;21.98;38.28
21109;BME280;10712;52.944;9.098;2023-04-09T12:02:47;102521.38;;;22.11;38.21
21109;BME280;10712;52.944;9.098;2023-04-09T12:05:25;102515.72;;;22.25;38.57
21109;BME280;10712;52.944;9.098;2023-04-09T12:08:01;102520.53;;;22.32;37.76
21109;BME280;10712;52.944;9.098;2023-04-09T12:10:30;102517.81;;;22.32;37.16
21109;BME280;10712;52.944;9.098;2023-04-09T12:13:05;102513.47;;;22.30;37.25
21109;BME280;10712;52.944;9.098;2023-04-09T12:15:36;102524.59;;;22.38;36.23
21109;BME280;10712;52.944;9.098;2023-04-09T12:18:07;102525.66;;;22.13;36.50
21109;BME280;10712;52.944;9.098;2023-04-09T12:20:45;102520.00;;;22.16;37.08
21109;BME280;10712;52.944;9.098;2023-04-09T12:23:12;102523.81;;;22.03;37.26
21109;BME280;10712;52.944;9.098;2023-04-09T12:25:43;102511.78;;;21.83;37.25
21109;BME280;10712;52.944;9.098;2023-04-09T12:28:14;102510.66;;;21.85;36.86
21109;BME280;10712;52.944;9.098;2023-04-09T12:30:43;102514.97;;;21.88;36.25
21109;BME280;10712;52.944;9.098;2023-04-09T12:33:09;102511.66;;;21.95;35.38
21109;BME280;10712;52.944;9.098;2023-04-09T12:35:35;102499.78;;;21.85;33.97
21109;BME280;10712;52.944;9.098;2023-04-09T12:38:02;102508.69;;;21.87;35.03
21109;BME280;10712;52.944;9.098;2023-04-09T12:40:29;102500.81;;;21.95;35.23
21109;BME280;10712;52.944;9.098;2023-04-09T12:42:55;102493.72;;;22.17;34.17
21109;BME280;10712;52.944;9.098;2023-04-09T12:45:21;102499.03;;;22.29;33.65
21109;BME280;10712;52.944;9.098;2023-04-09T12:47:47;102492.63;;;22.42;32.31
21109;BME280;10712;52.944;9.098;2023-04-09T12:50:14;102479.53;;;22.35;32.92
21109;BME280;10712;52.944;9.098;2023-04-09T12:52:41;102485.22;;;22.32;34.18
21109;BME280;10712;52.944;9.098;2023-04-09T12:55:08;102489.41;;;22.36;34.40
21109;BME280;10712;52.944;9.098;2023-04-09T12:57:37;102477.56;;;22.49;33.74
21109;BME280;10712;52.944;9.098;2023-04-09T13:00:06;102482.38;;;22.45;33.99
21109;BME280;10712;52.944;9.098;2023-04-09T13:02:32;102485.34;;;22.53;33.87
21109;BME280;10712;52.944;9.098;2023-04-09T13:04:58;102484.56;;;22.62;33.64
21109;BME280;10712;52.944;9.098;2023-04-09T13:07:24;102480.13;;;22.72;32.27
21109;BME280;10712;52.944;9.098;2023-04-09T13:09:55;102477.06;;;22.77;32.62
21109;BME280;10712;52.944;9.098;2023-04-09T13:12:21;102471.63;;;22.77;32.82
21109;BME280;10712;52.944;9.098;2023-04-09T13:14:50;102467.28;;;22.86;33.25